CKF6 weather

Macgregor Airport
Macgregor, Manitoba, Canada

Public forecast

Using degrees Celsius for public forecast. Weather courtesy of forecast.io.

METAR (pilot weather report)

Closest report is Southport Airport, 18.8 nm (34.8 km) ESE. Retrieved 2019/05/23 12:00 UTC (22 minutes ago):

CYPG 231200Z 30007KT 15SM FEW090 BKN180 OVC240 07/04 A3003 RMK AC2AC4CI2 SLP179

TAF (pilot weather forecast)

Closest forecast is Southport Airport, 18.8 nm (34.8 km) ESE. Retrieved 2019/05/23 12:18 UTC (4 minutes ago):

TAF TAF CYPG 231215Z 2312/2324 31008KT P6SM FEW090 BKN180 BECMG 2317/2319 02008KT FEW240 RMK NXT FCST BY 231800Z